createdAt,value
2022-11-30T00:03:12.215Z,22.38
2022-11-30T00:08:13.858Z,23.33
2022-11-30T00:13:15.257Z,22.95
2022-11-30T00:18:17.740Z,23.58
2022-11-30T00:23:19.107Z,25.48
2022-11-30T00:28:20.471Z,23.70
2022-11-30T00:33:21.840Z,23.52
2022-11-30T00:38:23.448Z,23.65
2022-11-30T00:43:24.823Z,22.90
2022-11-30T00:48:26.464Z,23.38
2022-11-30T00:53:27.872Z,22.50
2022-11-30T00:58:29.281Z,22.70
2022-11-30T01:03:30.761Z,23.40
2022-11-30T01:08:33.125Z,23.42
2022-11-30T01:13:34.770Z,25.30
2022-11-30T01:18:37.978Z,22.75
2022-11-30T01:23:40.491Z,24.10
2022-11-30T01:28:43.991Z,23.40
2022-11-30T01:33:52.763Z,24.52
2022-11-30T01:38:57.036Z,24.63
2022-11-30T01:44:20.245Z,23.98
2022-11-30T01:49:29.747Z,25.23
2022-11-30T01:54:41.199Z,23.15
2022-11-30T01:59:42.694Z,24.05
2022-11-30T02:04:44.438Z,23.45
2022-11-30T02:09:45.998Z,24.13
2022-11-30T02:14:54.147Z,24.08
2022-11-30T02:20:21.896Z,24.35
2022-11-30T02:25:48.347Z,23.80
2022-11-30T02:30:53.810Z,23.60
2022-11-30T02:35:57.027Z,23.60
2022-11-30T02:40:58.391Z,23.30
2022-11-30T02:46:11.861Z,23.83
2022-11-30T02:51:17.910Z,23.90
2022-11-30T02:56:20.545Z,24.23
2022-11-30T03:01:22.173Z,22.27
2022-11-30T03:06:23.594Z,22.27
2022-11-30T03:11:25.690Z,21.98
2022-11-30T03:16:27.054Z,21.77
2022-11-30T03:21:28.783Z,23.52
2022-11-30T03:26:30.330Z,21.02
2022-11-30T03:31:31.747Z,22.67
2022-11-30T03:36:33.169Z,22.50
2022-11-30T03:41:34.524Z,20.73
2022-11-30T03:46:35.974Z,22.48
2022-11-30T03:51:37.551Z,21.25
2022-11-30T03:56:38.944Z,21.75
2022-11-30T04:01:41.087Z,19.15
2022-11-30T04:06:42.567Z,20.47
2022-11-30T04:11:43.975Z,21.67
2022-11-30T04:16:45.347Z,22.40
2022-11-30T04:21:46.735Z,21.35
2022-11-30T04:26:48.130Z,22.63
2022-11-30T04:31:49.502Z,20.70
2022-11-30T04:36:51.673Z,21.40
2022-11-30T04:41:55.263Z,21.33
2022-11-30T04:46:56.698Z,21.15
2022-11-30T04:51:58.086Z,21.52
2022-11-30T04:56:59.851Z,21.98
2022-11-30T05:02:01.259Z,20.30
2022-11-30T05:07:02.695Z,20.75
2022-11-30T05:12:04.235Z,20.30
2022-11-30T05:17:05.637Z,19.75
2022-11-30T05:22:07.035Z,20.38
2022-11-30T05:27:14.361Z,20.23
2022-11-30T05:32:18.302Z,20.70
2022-11-30T05:37:19.742Z,20.63
2022-11-30T05:42:21.674Z,18.98
2022-11-30T05:47:23.078Z,20.60
2022-11-30T05:52:24.511Z,20.02
2022-11-30T05:57:25.932Z,20.50
2022-11-30T06:02:28.444Z,20.15
2022-11-30T06:07:30.159Z,19.70
2022-11-30T06:12:31.623Z,20.75
2022-11-30T06:17:33.032Z,22.27
2022-11-30T06:22:34.635Z,20.85
2022-11-30T06:27:35.997Z,20.02
2022-11-30T06:32:37.481Z,20.02
2022-11-30T06:37:38.991Z,20.02
2022-11-30T06:42:40.613Z,21.52
2022-11-30T06:47:42.132Z,21.85
2022-11-30T06:52:43.491Z,20.98
2022-11-30T06:57:47.583Z,21.48
2022-11-30T07:02:49.080Z,21.83
2022-11-30T07:07:50.891Z,19.27
2022-11-30T07:12:52.385Z,20.13
2022-11-30T07:17:53.896Z,21.67
2022-11-30T07:22:55.919Z,21.10
2022-11-30T07:28:01.145Z,21.05
2022-11-30T07:33:02.728Z,19.80
2022-11-30T07:43:25.352Z,21.23
2022-11-30T07:49:00.843Z,20.58
2022-11-30T07:54:02.891Z,21.10
2022-11-30T07:59:04.652Z,21.73
2022-11-30T08:04:51.323Z,21.25
2022-11-30T08:09:54.477Z,21.15
2022-11-30T08:15:18.657Z,22.83
2022-11-30T08:20:17.320Z,20.10
2022-11-30T08:25:18.767Z,22.23
2022-11-30T08:30:20.187Z,20.75
2022-11-30T08:35:21.602Z,21.05
2022-11-30T08:40:23.005Z,19.23
2022-11-30T08:45:24.434Z,18.80
2022-11-30T08:50:25.807Z,18.65
2022-11-30T08:55:27.179Z,19.20
2022-11-30T09:00:28.608Z,19.17
2022-11-30T09:05:30.006Z,18.42
2022-11-30T09:10:31.402Z,16.80
2022-11-30T09:15:33.349Z,17.92
2022-11-30T09:20:35.886Z,17.13
2022-11-30T09:25:37.542Z,17.92
2022-11-30T09:30:38.965Z,16.80
2022-11-30T09:35:40.524Z,17.48
2022-11-30T09:40:42.470Z,16.08
2022-11-30T09:45:53.375Z,16.20
2022-11-30T09:50:56.076Z,16.95
2022-11-30T09:55:59.885Z,16.50
2022-11-30T10:01:06.677Z,15.30
2022-11-30T10:06:15.837Z,15.07
2022-11-30T10:11:48.142Z,14.38
2022-11-30T10:17:07.016Z,13.57
2022-11-30T10:22:14.659Z,14.30
2022-11-30T10:27:40.932Z,14.95
2022-11-30T10:32:45.410Z,15.50
2022-11-30T10:37:48.567Z,14.65
2022-11-30T10:42:59.152Z,14.40
2022-11-30T10:48:13.950Z,14.65
2022-11-30T10:53:15.509Z,15.10
2022-11-30T10:58:31.402Z,15.35
2022-11-30T11:03:33.827Z,14.77
2022-11-30T11:08:35.438Z,14.02
2022-11-30T11:13:38.637Z,14.35
2022-11-30T11:18:57.583Z,15.05
2022-11-30T11:23:59.049Z,13.43
2022-11-30T11:29:00.574Z,12.93
2022-11-30T11:34:02.078Z,12.90
2022-11-30T11:39:23.508Z,12.23
2022-11-30T11:44:27.848Z,13.05
2022-11-30T11:49:31.525Z,13.77
2022-11-30T11:54:47.156Z,13.07
2022-11-30T12:00:05.389Z,14.35
2022-11-30T12:05:15.978Z,13.75
2022-11-30T12:10:50.819Z,13.75
2022-11-30T12:15:57.965Z,14.30
2022-11-30T12:21:22.444Z,14.27
2022-11-30T12:26:53.453Z,14.27
2022-11-30T12:32:19.815Z,14.80
2022-11-30T12:37:48.459Z,14.77
2022-11-30T12:43:01.464Z,15.77
2022-11-30T12:48:26.603Z,15.73
2022-11-30T12:53:43.003Z,14.57
2022-11-30T12:58:51.097Z,13.57
2022-11-30T13:04:08.841Z,14.43
2022-11-30T13:09:41.435Z,15.00
2022-11-30T13:14:43.346Z,14.00
2022-11-30T13:20:00.074Z,15.82
2022-11-30T13:25:16.555Z,16.05
2022-11-30T13:30:41.399Z,14.98
2022-11-30T13:35:53.557Z,15.38
2022-11-30T13:41:01.060Z,15.82
2022-11-30T13:46:13.339Z,15.13
2022-11-30T13:51:35.165Z,14.47
2022-11-30T13:56:36.903Z,14.45
2022-11-30T14:01:38.427Z,13.57
2022-11-30T14:06:42.678Z,14.38
2022-11-30T14:11:45.250Z,15.00
2022-11-30T14:16:46.790Z,13.27
2022-11-30T14:21:48.949Z,13.52
2022-11-30T14:26:51.716Z,12.97
2022-11-30T14:32:15.751Z,14.05
2022-11-30T14:37:33.038Z,13.32
2022-11-30T14:42:36.553Z,13.55
2022-11-30T14:47:38.048Z,13.85
2022-11-30T14:53:21.265Z,14.38
2022-11-30T14:58:43.899Z,13.77
2022-11-30T15:03:47.435Z,14.00
2022-11-30T15:08:53.258Z,13.40
2022-11-30T15:14:08.275Z,13.10
2022-11-30T15:19:22.392Z,13.90
2022-11-30T15:24:25.476Z,13.85
2022-11-30T15:29:43.578Z,12.00
2022-11-30T15:34:54.955Z,12.07
2022-11-30T15:40:00.898Z,13.18
2022-11-30T15:45:36.117Z,13.65
2022-11-30T15:50:39.358Z,12.40
2022-11-30T15:55:47.597Z,12.48
2022-11-30T16:01:24.634Z,12.82
2022-11-30T16:06:35.289Z,13.35
2022-11-30T16:11:36.928Z,12.70
2022-11-30T16:16:38.429Z,13.60
2022-11-30T16:21:40.358Z,13.35
2022-11-30T16:26:51.755Z,11.98
2022-11-30T16:31:53.766Z,12.10
2022-11-30T16:36:55.287Z,9.60
2022-11-30T16:41:56.798Z,10.50
2022-11-30T16:46:58.271Z,11.20
2022-11-30T16:51:59.728Z,12.40
2022-11-30T16:57:01.422Z,13.38
2022-11-30T17:02:04.977Z,12.73
2022-11-30T17:07:06.794Z,12.00
2022-11-30T17:12:09.263Z,14.25
2022-11-30T17:17:10.762Z,15.17
2022-11-30T17:22:12.173Z,13.23
2022-11-30T17:27:13.543Z,13.25
2022-11-30T17:32:14.996Z,14.15
2022-11-30T17:37:16.498Z,13.70
2022-11-30T17:42:18.035Z,13.70
2022-11-30T17:47:19.463Z,12.50
2022-11-30T17:52:20.903Z,11.77
2022-11-30T17:57:47.799Z,12.25
2022-11-30T18:02:53.307Z,11.77
2022-11-30T18:07:54.935Z,12.65
2022-11-30T18:12:56.324Z,11.65
2022-11-30T18:18:01.186Z,14.35
2022-11-30T18:23:02.607Z,13.27
2022-11-30T18:28:06.540Z,15.10
2022-11-30T18:33:08.405Z,14.98
2022-11-30T18:38:09.776Z,14.70
2022-11-30T18:43:11.236Z,15.15
2022-11-30T18:48:12.675Z,16.02
2022-11-30T18:53:18.261Z,15.02
2022-11-30T18:58:20.044Z,16.17
2022-11-30T19:03:21.419Z,15.23
2022-11-30T19:08:23.304Z,15.52
2022-11-30T19:13:24.999Z,15.95
2022-11-30T19:18:26.510Z,16.70
2022-11-30T19:23:28.418Z,16.40
2022-11-30T19:28:31.091Z,17.35
2022-11-30T19:33:35.686Z,18.90
2022-11-30T19:38:37.148Z,20.00
2022-11-30T19:43:39.128Z,22.25
2022-11-30T19:48:41.823Z,23.92
2022-11-30T19:53:44.565Z,25.40
2022-11-30T19:58:46.445Z,25.65
2022-11-30T20:03:48.160Z,27.80
2022-11-30T20:08:49.573Z,33.05
2022-11-30T20:13:51.436Z,26.08
2022-11-30T20:18:57.602Z,27.67
2022-11-30T20:24:01.016Z,26.90
2022-11-30T20:29:04.496Z,26.13
2022-11-30T20:34:07.971Z,28.05
2022-11-30T20:39:10.663Z,28.92
2022-11-30T20:44:14.823Z,29.80
2022-11-30T20:49:18.348Z,29.77
2022-11-30T20:54:19.893Z,29.33
2022-11-30T20:59:23.477Z,27.10
2022-11-30T21:04:28.325Z,29.55
2022-11-30T21:09:29.721Z,27.58
2022-11-30T21:14:31.130Z,27.92
2022-11-30T21:19:33.582Z,26.48
2022-11-30T21:24:35.098Z,27.17
2022-11-30T21:29:36.622Z,26.40
2022-11-30T21:34:38.089Z,26.52
2022-11-30T21:39:40.894Z,24.33
2022-11-30T21:44:42.393Z,24.15
2022-11-30T21:49:43.852Z,24.27
2022-11-30T21:54:45.349Z,25.02
2022-11-30T21:59:47.043Z,27.17
2022-11-30T22:04:48.710Z,24.52
2022-11-30T22:09:50.391Z,25.65
2022-11-30T22:14:51.946Z,24.48
2022-11-30T22:19:53.310Z,24.73
2022-11-30T22:24:55.605Z,24.67
2022-11-30T22:29:56.962Z,23.93
2022-11-30T22:34:58.319Z,23.70
2022-11-30T22:39:59.814Z,23.38
2022-11-30T22:45:01.166Z,23.67
2022-11-30T22:50:02.658Z,25.77
2022-11-30T22:55:04.310Z,24.05
2022-11-30T23:00:06.759Z,24.88
2022-11-30T23:05:08.309Z,25.50
2022-11-30T23:10:09.742Z,25.23
2022-11-30T23:15:11.455Z,24.70
2022-11-30T23:20:13.279Z,24.33
2022-11-30T23:25:16.669Z,26.02
2022-11-30T23:30:18.154Z,25.83
2022-11-30T23:35:19.599Z,24.13
2022-11-30T23:40:21.120Z,22.10
2022-11-30T23:45:22.508Z,24.02
2022-11-30T23:50:23.870Z,22.95
2022-11-30T23:55:25.284Z,24.80
